Time;durP1;ratioP1;P1;durP2;ratioP2;P2;SDS_P1;SDS_P2;PMS_P1;PMS_P2;Temp;Humidity;BMP_temperature;BMP_pressure;BME280_temperature;BME280_humidity;BME280_pressure;Samples;Min_cycle;Max_cycle;Signal;HPM_P1;HPM_P2
2024/04/08 00:01:23;;;;;;;10.40;8.70;;;;;;;-147.86;100.00;40254.84;105911;1253;61250;-46
2024/04/08 00:03:50;;;;;;;14.00;8.40;;;;;;;-147.86;100.00;40389.05;105876;1256;74675;-47
2024/04/08 00:06:17;;;;;;;15.50;9.50;;;;;;;-147.86;100.00;40544.02;105871;1256;64527;-47
2024/04/08 00:08:44;;;;;;;17.30;9.80;;;;;;;-147.86;100.00;40659.84;105875;1254;72607;-45
2024/04/08 00:11:11;;;;;;;12.10;9.80;;;;;;;-147.86;100.00;40824.20;105900;1254;61803;-45
2024/04/08 00:13:38;;;;;;;13.80;9.30;;;;;;;-147.86;100.00;40981.91;105913;1254;61330;-49
2024/04/08 00:16:06;;;;;;;30.30;9.70;;;;;;;-147.86;100.00;41128.29;105891;1256;73535;-44
2024/04/08 00:18:33;;;;;;;22.50;9.10;;;;;;;-147.86;100.00;41306.76;106002;1256;65399;-46
2024/04/08 00:21:04;;;;;;;15.60;9.10;;;;;;;-147.86;100.00;41498.93;105896;1256;72621;-47
2024/04/08 00:23:32;;;;;;;13.00;8.80;;;;;;;-147.86;100.00;41597.96;105896;1256;61145;-49
2024/04/08 00:26:03;;;;;;;18.00;10.00;;;;;;;-147.86;100.00;41859.82;105910;1253;61202;-46
2024/04/08 00:28:30;;;;;;;13.90;10.10;;;;;;;-147.86;100.00;42047.34;105910;1252;74553;-48
2024/04/08 00:31:02;;;;;;;13.40;9.70;;;;;;;-147.86;100.00;42395.75;105880;1254;64559;-49
2024/04/08 00:33:36;;;;;;;16.90;9.50;;;;;;;-147.86;100.00;42617.73;105887;1254;72404;-50
2024/04/08 00:36:04;;;;;;;16.20;9.20;;;;;;;-147.86;100.00;42822.51;105898;1253;61714;-46
2024/04/08 00:38:31;;;;;;;11.10;8.70;;;;;;;-147.86;100.00;43158.06;105965;1256;61138;-49
2024/04/08 00:40:58;;;;;;;13.30;9.50;;;;;;;-147.86;100.00;43385.96;105872;1256;74496;-47
2024/04/08 00:43:25;;;;;;;14.80;9.80;;;;;;;-147.86;100.00;43532.42;105941;1254;65262;-49
2024/04/08 00:45:53;;;;;;;12.90;9.20;;;;;;;-147.86;100.00;43649.12;105918;1256;72315;-48
2024/04/08 00:48:20;;;;;;;14.50;9.80;;;;;;;-147.86;100.00;43804.99;105858;1253;61963;-46
2024/04/08 00:50:49;;;;;;;14.30;8.90;;;;;;;-147.86;100.00;43990.63;105872;1254;61321;-46
2024/04/08 00:53:17;;;;;;;12.10;9.40;;;;;;;-147.86;100.00;44151.21;105916;1256;74339;-48
2024/04/08 00:55:44;;;;;;;14.30;10.00;;;;;;;-147.86;100.00;44364.68;105927;1253;65826;-47
2024/04/08 00:58:11;;;;;;;16.30;9.40;;;;;;;-147.86;100.00;44581.29;105684;1258;72494;-49
2024/04/08 01:00:38;;;;;;;12.70;8.90;;;;;;;-147.86;100.00;44771.66;105866;1254;61694;-48
2024/04/08 01:03:05;;;;;;;15.90;10.10;;;;;;;-147.86;100.00;44923.66;105730;1253;61339;-49
2024/04/08 01:05:32;;;;;;;11.40;8.80;;;;;;;-147.86;100.00;45041.96;105774;1254;74634;-47
2024/04/08 01:07:59;;;;;;;13.60;7.00;;;;;;;-147.86;100.00;45154.79;105674;1254;65640;-48
2024/04/08 01:10:27;;;;;;;9.40;7.60;;;;;;;-147.86;100.00;45265.27;105885;1255;72519;-47
2024/04/08 01:12:54;;;;;;;8.40;5.90;;;;;;;-147.86;100.00;45408.67;105891;1256;61157;-48
2024/04/08 01:15:21;;;;;;;7.60;6.20;;;;;;;-147.86;100.00;45552.85;105924;1254;61135;-47
2024/04/08 01:17:49;;;;;;;10.20;6.50;;;;;;;-147.86;100.00;45708.01;105782;1256;74505;-47
2024/04/08 01:20:16;;;;;;;13.40;6.30;;;;;;;-147.86;100.00;45783.24;105926;1254;65567;-50
2024/04/08 01:22:45;;;;;;;8.60;5.20;;;;;;;-147.86;100.00;45890.21;105904;1256;72837;-50
2024/04/08 01:25:13;;;;;;;8.60;5.40;;;;;;;-147.86;100.00;45933.71;105983;1256;61243;-45
2024/04/08 01:27:39;;;;;;;9.80;6.00;;;;;;;-147.86;100.00;46023.83;105785;1254;61244;-50
2024/04/08 01:30:08;;;;;;;10.40;7.60;;;;;;;-147.86;100.00;46074.38;105933;1257;74367;-49
2024/04/08 01:32:35;;;;;;;9.40;7.20;;;;;;;-147.86;100.00;46121.41;105916;1254;65463;-46
2024/04/08 01:35:02;;;;;;;17.00;10.40;;;;;;;-147.86;100.00;46220.95;105922;1256;72687;-46
2024/04/08 01:37:49;;;;;;;12.00;8.50;;;;;;;-147.86;100.00;46019.95;105865;1254;63362;-45
2024/04/08 01:40:16;;;;;;;9.50;6.30;;;;;;;-147.86;100.00;46411.79;105888;1252;61337;-44
2024/04/08 01:42:43;;;;;;;11.80;6.80;;;;;;;-147.86;100.00;46639.88;105993;1256;74593;-49
2024/04/08 01:45:09;;;;;;;12.90;6.80;;;;;;;-147.86;100.00;46831.14;105848;1256;65379;-50
2024/04/08 01:47:36;;;;;;;7.20;6.50;;;;;;;-147.86;100.00;46994.58;105681;1256;72605;-47
2024/04/08 01:50:04;;;;;;;7.50;5.60;;;;;;;-147.86;100.00;47183.12;105506;1254;61708;-46
2024/04/08 01:52:31;;;;;;;7.30;5.80;;;;;;;-147.86;100.00;47394.39;105804;1254;61343;-49
2024/04/08 01:54:58;;;;;;;8.80;4.60;;;;;;;-147.86;100.00;47597.84;105880;1254;73548;-49
2024/04/08 01:57:25;;;;;;;5.30;4.90;;;;;;;-147.86;100.00;47771.90;105874;1256;64375;-48
2024/04/08 01:59:51;;;;;;;6.30;5.30;;;;;;;-147.86;100.00;47908.32;105876;1254;72722;-52
2024/04/08 02:02:18;;;;;;;6.60;6.00;;;;;;;-147.86;100.00;48084.75;105902;1254;61907;-48
2024/04/08 02:04:45;;;;;;;6.70;5.60;;;;;;;-147.86;100.00;48217.66;105887;1252;61361;-48
2024/04/08 02:07:12;;;;;;;6.50;5.60;;;;;;;-147.86;100.00;48344.70;106003;1256;73530;-48
2024/04/08 02:09:38;;;;;;;8.80;6.80;;;;;;;-147.86;100.00;48441.15;105899;1254;65412;-49
2024/04/08 02:12:08;;;;;;;8.20;6.10;;;;;;;-147.86;100.00;48495.26;105939;1254;74418;-44
2024/04/08 02:14:35;;;;;;;7.40;6.70;;;;;;;-147.86;100.00;48598.38;105950;1253;61694;-45
2024/04/08 02:17:02;;;;;;;15.30;10.80;;;;;;;-147.86;100.00;48672.10;105923;1254;61113;-46
2024/04/08 02:19:29;;;;;;;14.10;8.20;;;;;;;-147.86;100.00;48743.86;105951;1256;74553;-44
2024/04/08 02:21:57;;;;;;;9.50;7.00;;;;;;;-147.86;100.00;48810.91;105878;1256;65353;-47
2024/04/08 02:24:24;;;;;;;12.60;7.10;;;;;;;-147.86;100.00;48934.05;105892;1254;72660;-48
2024/04/08 02:26:51;;;;;;;9.00;7.10;;;;;;;-147.86;100.00;49048.55;105747;1256;61950;-48
2024/04/08 02:29:18;;;;;;;7.80;6.80;;;;;;;-147.86;100.00;49145.41;105717;1253;61237;-49
2024/04/08 02:31:45;;;;;;;12.80;8.40;;;;;;;-147.86;100.00;49266.21;105880;1256;74646;-49
2024/04/08 02:34:13;;;;;;;10.00;8.30;;;;;;;-147.86;100.00;49385.04;105904;1256;64704;-49
2024/04/08 02:36:41;;;;;;;9.80;8.30;;;;;;;-147.86;100.00;49534.86;105841;1256;71330;-49
2024/04/08 02:39:08;;;;;;;12.20;8.00;;;;;;;-147.86;100.00;49707.43;105892;1256;61929;-42
2024/04/08 02:41:35;;;;;;;11.60;8.10;;;;;;;-147.86;100.00;49904.34;105857;1254;61272;-47
2024/04/08 02:44:02;;;;;;;10.50;8.00;;;;;;;-147.86;100.00;50074.96;105858;1256;73633;-44
2024/04/08 02:46:29;;;;;;;8.70;6.70;;;;;;;-147.86;100.00;50191.46;105862;1254;65357;-47
2024/04/08 02:48:56;;;;;;;9.50;6.10;;;;;;;-147.86;100.00;50348.77;105843;1257;72827;-45
2024/04/08 02:51:23;;;;;;;6.60;5.70;;;;;;;-147.86;100.00;50475.48;105903;1254;61795;-45
2024/04/08 02:53:49;;;;;;;7.20;6.20;;;;;;;-147.86;100.00;50596.30;105952;1254;61288;-45
2024/04/08 02:56:17;;;;;;;7.30;6.50;;;;;;;-147.86;100.00;50686.15;105967;1256;73667;-48
2024/04/08 02:58:47;;;;;;;6.60;5.90;;;;;;;-147.86;100.00;50772.85;105993;1254;65357;-48
2024/04/08 03:01:14;;;;;;;5.60;5.10;;;;;;;-147.86;100.00;50830.13;105928;1254;70970;-43
2024/04/08 03:03:41;;;;;;;7.60;6.80;;;;;;;-147.86;100.00;50949.40;105958;1254;61952;-44
2024/04/08 03:06:12;;;;;;;9.40;6.80;;;;;;;-147.86;100.00;51036.89;105911;1252;61382;-47
2024/04/08 03:08:40;;;;;;;9.50;6.70;;;;;;;-147.86;100.00;51050.23;105905;1257;74499;-48
2024/04/08 03:11:06;;;;;;;8.60;7.60;;;;;;;-147.86;100.00;51160.88;105980;1252;64030;-46
2024/04/08 03:13:35;;;;;;;9.70;7.50;;;;;;;-147.86;100.00;51275.45;105879;1254;72580;-47
2024/04/08 03:16:02;;;;;;;13.30;7.90;;;;;;;-147.86;100.00;51344.51;105835;1253;61829;-49
2024/04/08 03:18:29;;;;;;;9.50;6.80;;;;;;;-147.86;100.00;51486.17;105856;1254;61258;-48
2024/04/08 03:21:00;;;;;;;7.50;6.60;;;;;;;-147.86;100.00;51611.73;105880;1256;74675;-48
2024/04/08 03:23:27;;;;;;;9.00;7.40;;;;;;;-147.86;100.00;51670.60;105892;1253;65377;-44
2024/04/08 03:26:01;;;;;;;13.10;7.80;;;;;;;-147.86;100.00;51832.67;105866;1252;71798;-45
2024/04/08 03:28:28;;;;;;;8.80;7.30;;;;;;;-147.86;100.00;51885.26;105929;1254;61241;-44
2024/04/08 03:30:56;;;;;;;8.50;7.70;;;;;;;-147.86;100.00;52118.37;105888;1253;61150;-49
2024/04/08 03:33:25;;;;;;;8.20;6.70;;;;;;;-147.86;100.00;52280.86;105898;1256;74705;-45
2024/04/08 03:35:51;;;;;;;7.40;6.10;;;;;;;-147.86;100.00;52441.38;105926;1253;63156;-46
2024/04/08 03:38:19;;;;;;;7.10;5.60;;;;;;;-147.86;100.00;52606.23;105873;1252;72400;-46
2024/04/08 03:40:57;;;;;;;10.30;5.60;;;;;;;-147.86;100.00;52756.56;105877;1254;61983;-47
2024/04/08 03:43:23;;;;;;;6.60;6.00;;;;;;;-147.86;100.00;52732.24;105908;1252;61326;-48
2024/04/08 03:45:51;;;;;;;7.70;6.90;;;;;;;-147.86;100.00;52962.65;105908;1256;74640;-47
2024/04/08 03:48:18;;;;;;;8.30;7.50;;;;;;;-147.86;100.00;53115.34;105856;1254;65483;-47
2024/04/08 03:50:44;;;;;;;10.90;8.00;;;;;;;-147.86;100.00;53265.70;105929;1256;71228;-47
2024/04/08 03:53:11;;;;;;;11.20;7.90;;;;;;;-147.86;100.00;53400.75;105970;1254;61929;-48
2024/04/08 03:55:39;;;;;;;9.80;7.10;;;;;;;-147.86;100.00;53538.55;105917;1254;61218;-46
2024/04/08 03:58:06;;;;;;;8.40;7.30;;;;;;;-147.86;100.00;53668.51;105923;1256;74599;-48
2024/04/08 04:00:33;;;;;;;7.10;6.40;;;;;;;-147.86;100.00;53807.10;105905;1256;65749;-48
2024/04/08 04:03:00;;;;;;;11.20;6.90;;;;;;;-147.86;100.00;53915.46;105873;1254;72293;-45
2024/04/08 04:05:26;;;;;;;9.60;6.80;;;;;;;-147.86;100.00;54033.26;105907;1254;61346;-45
2024/04/08 04:07:56;;;;;;;11.50;6.20;;;;;;;-147.86;100.00;54131.43;105880;1254;61330;-44
2024/04/08 04:10:23;;;;;;;12.10;6.70;;;;;;;-147.86;100.00;54164.41;105898;1256;74570;-46
2024/04/08 04:12:51;;;;;;;10.90;7.10;;;;;;;-147.86;100.00;54306.95;105902;1254;65395;-48
2024/04/08 04:15:18;;;;;;;7.50;6.30;;;;;;;-147.86;100.00;54403.94;105955;1256;72543;-45
2024/04/08 04:17:45;;;;;;;6.40;4.90;;;;;;;-147.86;100.00;54509.96;105924;1254;61828;-48
2024/04/08 04:20:15;;;;;;;8.20;5.70;;;;;;;-147.86;100.00;54579.47;105858;1254;61330;-47
2024/04/08 04:22:42;;;;;;;5.10;4.60;;;;;;;-147.86;100.00;54643.88;105888;1257;74583;-50
2024/04/08 04:25:09;;;;;;;5.90;5.30;;;;;;;-147.86;100.00;54771.11;105906;1253;65612;-47
2024/04/08 04:27:36;;;;;;;7.80;6.50;;;;;;;-147.86;100.00;54901.89;105877;1254;71614;-44
2024/04/08 04:30:03;;;;;;;9.00;6.40;;;;;;;-147.86;100.00;55015.40;105862;1254;62371;-48
2024/04/08 04:32:30;;;;;;;8.90;6.60;;;;;;;-147.86;100.00;55087.27;105895;1254;61244;-47
2024/04/08 04:34:57;;;;;;;12.00;6.20;;;;;;;-147.86;100.00;55150.11;105597;1256;333507;-48
2024/04/08 04:39:43;;;;;;;8.00;6.50;;;;;;;-147.86;100.00;51639.41;102468;1295;602329;-47
2024/04/08 04:42:10;;;;;;;8.80;6.30;;;;;;;-147.86;100.00;45142.91;105035;1265;59743;-44
2024/04/08 04:44:37;;;;;;;8.50;7.00;;;;;;;-147.86;100.00;47958.55;105088;1267;60518;-50
2024/04/08 04:47:04;;;;;;;10.20;6.10;;;;;;;-147.86;100.00;49191.70;105102;1269;72970;-47
2024/04/08 04:49:31;;;;;;;18.00;6.10;;;;;;;-147.86;100.00;49893.75;105578;1262;65344;-49
2024/04/08 04:51:58;;;;;;;9.80;6.50;;;;;;;-147.86;100.00;50344.45;105383;1261;279256;-46
2024/04/08 04:54:25;;;;;;;11.50;6.50;;;;;;;-147.86;100.00;50542.55;105609;1260;60364;-48
2024/04/08 04:56:53;;;;;;;14.20;6.90;;;;;;;-147.86;100.00;50564.14;105662;1260;59547;-49
2024/04/08 04:59:21;;;;;;;18.20;6.30;;;;;;;-147.86;100.00;50493.13;105629;1256;73195;-48
2024/04/08 05:01:48;;;;;;;20.90;7.30;;;;;;;-147.86;100.00;50245.98;105725;1260;65511;-48
2024/04/08 05:04:15;;;;;;;16.20;7.20;;;;;;;-147.86;100.00;49945.51;105615;1257;71677;-47
2024/04/08 05:06:41;;;;;;;8.50;6.60;;;;;;;-147.86;100.00;49414.84;105582;1260;61957;-45
2024/04/08 05:09:08;;;;;;;11.30;6.60;;;;;;;-147.86;100.00;48737.97;105573;1257;60537;-50
2024/04/08 05:11:35;;;;;;;16.00;6.60;;;;;;;-147.86;100.00;47969.09;105575;1257;73903;-46
2024/04/08 05:14:02;;;;;;;13.20;6.00;;;;;;;-147.86;100.00;47023.58;105619;1260;65413;-48
2024/04/08 05:16:30;;;;;;;12.80;6.50;;;;;;;-147.86;100.00;45958.00;105590;1257;72580;-47
2024/04/08 05:18:57;;;;;;;11.20;6.30;;;;;;;-147.86;100.00;44776.75;105584;1260;60557;-48
2024/04/08 05:21:24;;;;;;;20.50;7.60;;;;;;;-147.86;100.00;43518.31;105683;1257;60472;-46
2024/04/08 05:23:51;;;;;;;25.50;6.70;;;;;;;-147.86;100.00;42196.86;105570;1257;73833;-49
2024/04/08 05:26:18;;;;;;;13.70;7.00;;;;;;;-147.86;100.00;40763.14;105659;1261;64550;-45
2024/04/08 05:28:45;;;;;;;12.00;6.80;;;;;;;-147.86;100.00;39168.39;105564;1257;72458;-45
2024/04/08 05:31:12;;;;;;;42.00;7.50;;;;;;;-147.86;100.00;37488.27;105591;1262;60402;-48
2024/04/08 05:33:39;;;;;;;11.60;6.80;;;;;;;-147.86;100.00;35838.95;105606;1257;61467;-47
2024/04/08 05:36:06;;;;;;;24.50;7.20;;;;;;;-147.86;100.00;34177.05;105601;1257;74394;-49
2024/04/08 05:38:33;;;;;;;18.60;7.30;;;;;;;-147.86;100.00;32187.06;105566;1257;66175;-48
2024/04/08 05:41:01;;;;;;;23.30;6.30;;;;;;;-147.86;100.00;29711.82;105596;1257;72757;-47
2024/04/08 05:43:29;;;;;;;16.90;6.90;;;;;;;-147.86;100.00;26866.50;105596;1260;60587;-48
2024/04/08 05:45:56;;;;;;;22.20;6.60;;;;;;;-147.86;100.00;23815.19;105588;1257;60396;-48
2024/04/08 05:48:23;;;;;;;9.00;5.90;;;;;;;-147.86;100.00;20222.40;105580;1259;73815;-48
2024/04/08 05:50:49;;;;;;;11.70;5.40;;;;;;;-147.86;100.00;15917.39;105579;1260;66094;-51
2024/04/08 05:53:17;;;;;;;10.10;5.50;;;;;;;-147.86;100.00;10335.68;105746;1254;72622;-46
2024/04/08 05:55:44;;;;;;;8.50;5.60;;;;;;;-147.86;100.00;160.37;105652;1258;60974;-45
2024/04/08 05:58:11;;;;;;;16.20;5.70;;;;;;;-147.86;100.00;-10992.87;105821;1254;60453;-47
2024/04/08 06:00:38;;;;;;;9.50;5.70;;;;;;;-147.86;100.00;-16709.28;105970;1252;75403;-51
2024/04/08 06:03:06;;;;;;;10.00;5.40;;;;;;;-147.86;100.00;-17609.17;105853;1256;65276;-46
2024/04/08 06:05:34;;;;;;;14.40;4.80;;;;;;;-147.86;100.00;-17609.17;105905;1253;72700;-48
2024/04/08 06:08:02;;;;;;;11.40;4.70;;;;;;;-147.86;100.00;-17609.17;105924;1256;61105;-45
2024/04/08 06:10:34;;;;;;;7.00;4.30;;;;;;;-147.86;100.00;-17609.17;105928;1254;60986;-46
2024/04/08 06:13:01;;;;;;;11.30;5.00;;;;;;;-147.86;100.00;-17609.17;105972;1256;73909;-51
2024/04/08 06:15:31;;;;;;;6.30;3.90;;;;;;;-147.86;100.00;-17609.17;105868;1257;65411;-47
2024/04/08 06:17:58;;;;;;;8.10;4.50;;;;;;;-147.86;100.00;-17609.17;105903;1253;72776;-46
2024/04/08 06:20:27;;;;;;;12.00;5.20;;;;;;;-147.86;100.00;-17609.17;105863;1252;61114;-45
2024/04/08 06:22:54;;;;;;;7.20;4.80;;;;;;;-147.86;100.00;-17609.17;105928;1252;60418;-48
2024/04/08 06:25:21;;;;;;;11.50;4.30;;;;;;;-147.86;100.00;-17609.17;105893;1256;74486;-50
2024/04/08 06:28:04;;;;;;;8.80;3.80;;;;;;;-147.86;100.00;-17609.17;105892;1256;65287;-48
2024/04/08 06:30:31;;;;;;;7.90;4.10;;;;;;;-147.86;100.00;-17609.17;105869;1257;73139;-51
2024/04/08 06:32:58;;;;;;;4.30;3.60;;;;;;;-147.86;100.00;-17609.17;105924;1256;60947;-49
2024/04/08 06:35:25;;;;;;;5.90;3.70;;;;;;;-147.86;100.00;-17609.17;105985;1252;60530;-46
2024/04/08 06:37:52;;;;;;;4.40;4.00;;;;;;;-147.86;100.00;-17609.17;105911;1253;74394;-50
2024/04/08 06:40:19;;;;;;;4.80;3.50;;;;;;;-147.86;100.00;-17609.17;105924;1256;65432;-48
2024/04/08 06:42:46;;;;;;;11.00;4.50;;;;;;;-147.86;100.00;-17609.17;105935;1254;73451;-47
2024/04/08 06:45:13;;;;;;;5.00;3.40;;;;;;;-147.86;100.00;-17609.17;105884;1256;60780;-47
2024/04/08 06:47:40;;;;;;;3.80;3.30;;;;;;;-147.86;100.00;-17609.17;105921;1254;60533;-50
2024/04/08 06:50:07;;;;;;;3.70;3.40;;;;;;;-147.86;100.00;-17609.17;105940;1254;73698;-49
2024/04/08 06:52:35;;;;;;;2.90;2.80;;;;;;;-147.86;100.00;-17609.17;105902;1256;65387;-48
2024/04/08 06:55:02;;;;;;;3.00;2.80;;;;;;;-147.86;100.00;-17609.17;105898;1256;72763;-49
2024/04/08 06:57:29;;;;;;;6.30;3.10;;;;;;;-147.86;100.00;-17609.17;105964;1257;60402;-46
2024/04/08 06:59:56;;;;;;;6.30;3.00;;;;;;;-147.86;100.00;-17608.88;105927;1254;60780;-48
2024/04/08 07:02:23;;;;;;;3.50;3.00;;;;;;;-147.86;100.00;-17410.34;105727;1256;74230;-44
2024/04/08 07:04:50;;;;;;;4.80;2.90;;;;;;;-147.86;100.00;-16373.96;105671;1256;65071;-48
2024/04/08 07:07:17;;;;;;;4.00;2.80;;;;;;;-147.86;100.00;-13855.76;105672;1254;72736;-45
2024/04/08 07:09:44;;;;;;;7.30;3.10;;;;;;;-147.86;100.00;-11533.83;105852;1256;60431;-49
2024/04/08 07:12:11;;;;;;;4.70;2.90;;;;;;;-147.86;100.00;-7231.47;105886;1253;60775;-50
2024/04/08 07:14:38;;;;;;;3.20;2.80;;;;;;;-147.86;100.00;-2231.40;105933;1256;73887;-52
2024/04/08 07:17:05;;;;;;;5.00;3.20;;;;;;;-147.86;100.00;1585.19;105951;1256;63812;-49
2024/04/08 07:19:32;;;;;;;5.70;3.20;;;;;;;-147.86;99.79;7441.23;105879;1254;72658;-50
2024/04/08 07:22:00;;;;;;;3.50;3.10;;;;;;;-147.86;99.30;11515.77;105899;1256;61030;-49
2024/04/08 07:24:27;;;;;;;7.10;2.60;;;;;;;-147.86;97.50;16540.46;105858;1253;60447;-46
2024/04/08 07:26:54;;;;;;;4.70;3.00;;;;;;;-147.86;95.30;21870.93;105910;1254;73822;-48
2024/04/08 07:29:21;;;;;;;9.50;2.60;;;;;;;-147.86;93.62;29127.97;106005;1256;66196;-45
2024/04/08 07:31:48;;;;;;;4.80;2.80;;;;;;;-147.86;93.87;33182.93;105685;1254;72855;-49
2024/04/08 07:34:19;;;;;;;3.30;2.60;;;;;;;-147.86;94.47;34225.49;105916;1256;60899;-47
2024/04/08 07:36:46;;;;;;;3.60;2.70;;;;;;;-147.86;92.05;35396.21;105912;1253;60728;-48
2024/04/08 07:39:13;;;;;;;9.20;2.60;;;;;;;-147.86;85.82;42120.46;105914;1256;73081;-48
2024/04/08 07:41:40;;;;;;;6.70;2.60;;;;;;;-147.86;84.30;45798.54;105909;1254;65655;-45
2024/04/08 07:44:07;;;;;;;6.70;2.50;;;;;;;-147.86;84.01;46825.65;105890;1254;72517;-49
2024/04/08 07:46:35;;;;;;;6.30;1.90;;;;;;;-147.86;82.82;47349.70;105933;1256;60644;-50
2024/04/08 07:49:02;;;;;;;3.10;2.30;;;;;;;-147.86;78.95;47823.64;105939;1254;60446;-53
2024/04/08 07:51:29;;;;;;;5.30;2.10;;;;;;;-147.86;80.79;48202.37;105887;1257;74055;-49
2024/04/08 07:53:56;;;;;;;3.00;1.90;;;;;;;-147.86;78.45;48394.48;105901;1257;66124;-48
2024/04/08 07:56:23;;;;;;;2.10;2.00;;;;;;;-147.86;77.87;48568.97;105857;1254;72446;-47
2024/04/08 07:58:51;;;;;;;8.10;2.40;;;;;;;-147.86;76.05;48721.50;105851;1256;60493;-51
2024/04/08 08:01:18;;;;;;;2.30;2.10;;;;;;;-147.86;71.29;48814.83;105900;1252;60865;-45
2024/04/08 08:03:45;;;;;;;2.70;2.00;;;;;;;-147.86;69.54;48912.08;105883;1256;74564;-52
2024/04/08 08:06:14;;;;;;;5.00;2.30;;;;;;;-147.86;67.95;48975.21;105969;1256;66317;-46
2024/04/08 08:08:41;;;;;;;7.50;2.50;;;;;;;-147.86;65.44;49012.08;105927;1254;72994;-52
2024/04/08 08:11:08;;;;;;;5.50;2.40;;;;;;;-147.86;64.00;49003.45;105934;1256;60360;-47
2024/04/08 08:13:35;;;;;;;1.90;1.80;;;;;;;-147.86;61.94;49016.39;105917;1254;61074;-47
2024/04/08 08:16:02;;;;;;;4.80;1.70;;;;;;;-147.86;59.52;48995.61;105885;1252;73683;-50
2024/04/08 08:18:31;;;;;;;5.20;2.00;;;;;;;-147.86;57.57;48984.23;105913;1254;65851;-50
2024/04/08 08:21:01;;;;;;;3.40;1.40;;;;;;;-147.86;51.92;48922.67;105912;1254;72717;-48
2024/04/08 08:23:29;;;;;;;4.30;1.90;;;;;;;-147.86;49.86;48865.02;106011;1256;60977;-44
2024/04/08 08:26:00;;;;;;;3.10;1.40;;;;;;;-147.86;50.06;48811.70;105898;1254;60466;-48
2024/04/08 08:28:27;;;;;;;2.00;1.30;;;;;;;-147.86;51.80;48799.15;105869;1256;74025;-45
2024/04/08 08:30:54;;;;;;;4.90;2.00;;;;;;;-147.86;51.13;48795.23;105842;1257;64990;-46
2024/04/08 08:33:21;;;;;;;5.90;1.30;;;;;;;-147.86;51.03;48797.97;105845;1256;72842;-46
2024/04/08 08:35:48;;;;;;;6.50;1.50;;;;;;;-147.86;48.62;48742.29;105907;1257;60872;-46
2024/04/08 08:38:16;;;;;;;13.10;1.60;;;;;;;-147.86;49.09;48715.62;105885;1254;60879;-49
2024/04/08 08:40:43;;;;;;;2.70;1.60;;;;;;;-147.86;50.45;48728.96;105907;1257;74622;-52
2024/04/08 08:43:11;;;;;;;2.40;2.00;;;;;;;-147.86;52.53;48761.50;105927;1256;65497;-48
2024/04/08 08:45:41;;;;;;;4.00;1.90;;;;;;;-147.86;52.74;48808.16;105974;1254;73407;-49
2024/04/08 08:48:08;;;;;;;1.60;1.40;;;;;;;-147.86;51.49;48807.38;105911;1253;61235;-52
2024/04/08 08:50:36;;;;;;;4.20;1.70;;;;;;;-147.86;53.58;48825.02;106010;1254;61435;-49
2024/04/08 08:53:04;;;;;;;6.30;2.10;;;;;;;-147.86;53.75;48848.55;105914;1255;73735;-51
2024/04/08 08:55:32;;;;;;;4.00;2.10;;;;;;;-147.86;51.06;48863.06;105937;1256;64280;-53
2024/04/08 08:57:59;;;;;;;3.00;1.50;;;;;;;-147.86;50.40;48900.32;105949;1254;72774;-49
2024/04/08 09:00:31;;;;;;;2.00;1.70;;;;;;;-147.86;49.34;48954.43;105659;1258;61190;-48
2024/04/08 09:02:58;;;;;;;3.00;2.00;;;;;;;-147.86;46.55;48916.79;105806;1254;61397;-46
2024/04/08 09:05:26;;;;;;;1.80;1.50;;;;;;;-147.86;45.42;48856.79;105913;1254;75362;-53
2024/04/08 09:07:53;;;;;;;3.70;1.70;;;;;;;-147.86;45.46;48792.09;105871;1257;65641;-50
2024/04/08 09:10:23;;;;;;;1.70;1.60;;;;;;;-147.86;46.87;48787.38;105645;1255;73180;-51
2024/04/08 09:12:52;;;;;;;4.30;2.10;;;;;;;-147.86;45.57;48791.30;105835;1253;61228;-53
2024/04/08 09:15:19;;;;;;;5.90;2.10;;;;;;;-147.86;45.41;48785.81;105864;1254;61336;-50
2024/04/08 09:17:46;;;;;;;6.80;2.40;;;;;;;-147.86;46.39;48848.16;105904;1254;74647;-53
2024/04/08 09:20:13;;;;;;;7.00;2.80;;;;;;;-147.86;44.26;48816.40;105936;1255;64899;-50
2024/04/08 09:22:41;;;;;;;4.30;2.40;;;;;;;-147.86;44.66;48777.97;105908;1254;72866;-50
2024/04/08 09:25:12;;;;;;;6.60;2.40;;;;;;;-147.86;46.13;48774.44;105671;1255;61249;-49
2024/04/08 09:27:39;;;;;;;6.80;3.20;;;;;;;-147.86;44.50;48766.99;105921;1253;61205;-48
2024/04/08 09:30:07;;;;;;;3.00;2.60;;;;;;;-147.86;44.74;48766.21;105837;1254;75002;-49
2024/04/08 09:32:34;;;;;;;2.50;2.10;;;;;;;-147.86;44.40;48774.44;105940;1254;66121;-51
2024/04/08 09:35:03;;;;;;;7.10;2.10;;;;;;;-147.86;43.88;48780.71;105649;1259;72730;-48
2024/04/08 09:37:30;;;;;;;5.00;2.50;;;;;;;-147.86;42.87;48751.30;105855;1257;61170;-49
2024/04/08 09:39:57;;;;;;;6.10;1.90;;;;;;;-147.86;42.32;48782.68;105870;1254;61285;-49
2024/04/08 09:42:24;;;;;;;3.50;1.70;;;;;;;-147.86;41.12;48786.20;105704;1259;75364;-50
2024/04/08 09:44:51;;;;;;;2.20;1.80;;;;;;;-147.86;40.70;48792.09;105885;1255;64822;-50
2024/04/08 09:47:18;;;;;;;12.70;2.50;;;;;;;-147.86;40.92;48788.95;105721;1257;73193;-54
2024/04/08 09:49:45;;;;;;;6.20;2.00;;;;;;;-147.86;40.56;48766.21;105801;1257;61375;-48
2024/04/08 09:52:16;;;;;;;5.20;1.90;;;;;;;-147.86;40.15;48779.93;105858;1253;61323;-48
2024/04/08 09:54:43;;;;;;;3.50;1.90;;;;;;;-147.86;39.01;48749.34;105827;1253;73986;-47
2024/04/08 09:57:10;;;;;;;6.80;1.60;;;;;;;-147.86;40.66;48742.68;105884;1255;64740;-46
2024/04/08 09:59:38;;;;;;;4.40;1.30;;;;;;;-147.86;38.95;48728.56;105694;1254;72832;-51
2024/04/08 10:02:12;;;;;;;3.20;1.50;;;;;;;-147.86;38.28;48693.66;105857;1256;61453;-50
2024/04/08 10:04:39;;;;;;;4.00;1.50;;;;;;;-147.86;38.46;48625.04;105916;1253;61301;-47
2024/04/08 10:07:06;;;;;;;6.60;1.30;;;;;;;-147.86;37.99;48554.07;105884;1257;73634;-54
2024/04/08 10:09:33;;;;;;;6.20;1.70;;;;;;;-147.86;39.12;48588.18;105920;1256;64638;-53
2024/04/08 10:12:02;;;;;;;2.80;1.40;;;;;;;-147.86;38.37;48581.91;105849;1254;73172;-48
2024/04/08 10:14:30;;;;;;;4.10;1.50;;;;;;;-147.86;38.68;48601.52;105924;1256;61225;-48
2024/04/08 10:17:00;;;;;;;3.00;1.60;;;;;;;-147.86;37.79;48595.63;105925;1254;61285;-52
2024/04/08 10:19:27;;;;;;;3.90;1.40;;;;;;;-147.86;36.95;48575.63;105690;1257;74975;-49
2024/04/08 10:21:59;;;;;;;3.20;1.70;;;;;;;-147.86;36.99;48508.98;105858;1254;64777;-48
2024/04/08 10:24:36;;;;;;;1.70;1.60;;;;;;;-147.86;37.56;48506.23;105882;1256;71618;-50
2024/04/08 10:27:08;;;;;;;3.90;1.30;;;;;;;-147.86;37.31;48496.43;105880;1254;61134;-51
2024/04/08 10:29:36;;;;;;;1.40;1.30;;;;;;;-147.86;37.26;48520.35;105907;1254;61613;-45
2024/04/08 10:32:04;;;;;;;4.00;1.50;;;;;;;-147.86;37.04;48533.68;105898;1255;74841;-47
2024/04/08 10:34:34;;;;;;;7.20;1.60;;;;;;;-147.86;37.15;48548.19;105916;1256;65210;-49
2024/04/08 10:37:01;;;;;;;2.30;1.50;;;;;;;-147.86;36.17;48615.24;105904;1254;72619;-49
2024/04/08 10:39:28;;;;;;;2.90;1.30;;;;;;;-147.86;35.60;48604.65;105886;1254;61147;-45
2024/04/08 10:41:57;;;;;;;4.00;1.50;;;;;;;-147.86;34.96;48560.34;105885;1254;61633;-48
2024/04/08 10:44:31;;;;;;;4.60;1.50;;;;;;;-147.86;35.17;48492.51;105897;1254;73650;-48
2024/04/08 10:46:59;;;;;;;2.40;1.50;;;;;;;-147.86;34.88;48500.35;105911;1256;64626;-49
2024/04/08 10:49:26;;;;;;;4.70;1.40;;;;;;;-147.86;35.15;48545.45;105893;1257;73115;-45
2024/04/08 10:51:53;;;;;;;7.00;1.70;;;;;;;-147.86;34.90;48554.46;105912;1255;61261;-51
2024/04/08 10:54:20;;;;;;;1.90;1.40;;;;;;;-147.86;34.99;48523.88;105885;1253;61333;-51
2024/04/08 10:56:46;;;;;;;5.00;1.30;;;;;;;-147.86;34.20;48457.61;105889;1254;75715;-50
2024/04/08 10:59:14;;;;;;;2.70;1.70;;;;;;;-147.86;34.22;48410.17;105928;1256;65673;-51
2024/04/08 11:01:41;;;;;;;2.90;1.90;;;;;;;-147.86;34.27;48406.64;105989;1255;72850;-52
2024/04/08 11:04:08;;;;;;;2.50;1.40;;;;;;;-147.86;34.52;48374.10;105889;1257;61145;-48
2024/04/08 11:06:35;;;;;;;5.80;1.90;;;;;;;-147.86;34.87;48365.86;105714;1252;61234;-48